sensor_id;sensor_type;location;lat;lon;timestamp;P1;durP1;ratioP1;P2;durP2;ratioP2
15996;SDS011;8103;51.340;12.326;2024-02-21T00:00:33;11.63;;;4.43;;
15996;SDS011;8103;51.340;12.326;2024-02-21T00:03:00;14.50;;;4.55;;
15996;SDS011;8103;51.340;12.326;2024-02-21T00:05:28;6.75;;;3.88;;
15996;SDS011;8103;51.340;12.326;2024-02-21T00:07:55;9.13;;;3.25;;
15996;SDS011;8103;51.340;12.326;2024-02-21T00:10:23;17.45;;;4.25;;
15996;SDS011;8103;51.340;12.326;2024-02-21T00:12:51;11.43;;;3.28;;
15996;SDS011;8103;51.340;12.326;2024-02-21T00:15:18;7.78;;;3.42;;
15996;SDS011;8103;51.340;12.326;2024-02-21T00:17:45;11.63;;;3.50;;
15996;SDS011;8103;51.340;12.326;2024-02-21T00:20:12;9.27;;;3.22;;
15996;SDS011;8103;51.340;12.326;2024-02-21T00:22:39;11.38;;;3.80;;
15996;SDS011;8103;51.340;12.326;2024-02-21T00:25:05;12.52;;;3.28;;
15996;SDS011;8103;51.340;12.326;2024-02-21T00:27:33;9.48;;;3.95;;
15996;SDS011;8103;51.340;12.326;2024-02-21T00:29:59;14.25;;;4.53;;
15996;SDS011;8103;51.340;12.326;2024-02-21T00:32:26;12.25;;;4.47;;
15996;SDS011;8103;51.340;12.326;2024-02-21T00:34:53;10.60;;;5.50;;
15996;SDS011;8103;51.340;12.326;2024-02-21T00:37:19;13.85;;;3.70;;
15996;SDS011;8103;51.340;12.326;2024-02-21T00:39:46;8.70;;;3.28;;
15996;SDS011;8103;51.340;12.326;2024-02-21T00:42:13;9.82;;;3.85;;
15996;SDS011;8103;51.340;12.326;2024-02-21T00:44:39;8.05;;;4.20;;
15996;SDS011;8103;51.340;12.326;2024-02-21T00:47:06;13.35;;;3.95;;
15996;SDS011;8103;51.340;12.326;2024-02-21T00:49:33;9.88;;;3.67;;
15996;SDS011;8103;51.340;12.326;2024-02-21T00:51:59;12.20;;;4.93;;
15996;SDS011;8103;51.340;12.326;2024-02-21T00:54:26;11.00;;;3.33;;
15996;SDS011;8103;51.340;12.326;2024-02-21T00:56:57;9.68;;;3.45;;
15996;SDS011;8103;51.340;12.326;2024-02-21T00:59:23;8.38;;;2.75;;
15996;SDS011;8103;51.340;12.326;2024-02-21T01:01:50;6.22;;;3.03;;
15996;SDS011;8103;51.340;12.326;2024-02-21T01:04:17;7.03;;;4.07;;
15996;SDS011;8103;51.340;12.326;2024-02-21T01:06:44;9.95;;;3.65;;
15996;SDS011;8103;51.340;12.326;2024-02-21T01:09:11;9.32;;;3.55;;
15996;SDS011;8103;51.340;12.326;2024-02-21T01:11:37;6.22;;;2.83;;
15996;SDS011;8103;51.340;12.326;2024-02-21T01:14:04;9.70;;;3.35;;
15996;SDS011;8103;51.340;12.326;2024-02-21T01:16:31;8.02;;;2.63;;
15996;SDS011;8103;51.340;12.326;2024-02-21T01:18:58;10.30;;;3.20;;
15996;SDS011;8103;51.340;12.326;2024-02-21T01:21:24;13.98;;;3.78;;
15996;SDS011;8103;51.340;12.326;2024-02-21T01:23:51;8.20;;;3.05;;
15996;SDS011;8103;51.340;12.326;2024-02-21T01:26:18;10.27;;;3.83;;
15996;SDS011;8103;51.340;12.326;2024-02-21T01:28:44;8.75;;;4.00;;
15996;SDS011;8103;51.340;12.326;2024-02-21T01:31:11;8.48;;;3.15;;
15996;SDS011;8103;51.340;12.326;2024-02-21T01:33:39;10.27;;;2.97;;
15996;SDS011;8103;51.340;12.326;2024-02-21T01:36:06;10.77;;;2.72;;
15996;SDS011;8103;51.340;12.326;2024-02-21T01:38:33;10.00;;;3.90;;
15996;SDS011;8103;51.340;12.326;2024-02-21T01:41:00;5.20;;;3.22;;
15996;SDS011;8103;51.340;12.326;2024-02-21T01:43:27;10.07;;;3.35;;
15996;SDS011;8103;51.340;12.326;2024-02-21T01:45:54;8.82;;;3.55;;
15996;SDS011;8103;51.340;12.326;2024-02-21T01:48:22;15.98;;;4.30;;
15996;SDS011;8103;51.340;12.326;2024-02-21T01:50:50;12.05;;;4.18;;
15996;SDS011;8103;51.340;12.326;2024-02-21T01:53:40;11.02;;;3.55;;
15996;SDS011;8103;51.340;12.326;2024-02-21T01:56:08;8.95;;;2.97;;
15996;SDS011;8103;51.340;12.326;2024-02-21T01:58:36;8.30;;;3.25;;
15996;SDS011;8103;51.340;12.326;2024-02-21T02:01:05;7.78;;;3.90;;
15996;SDS011;8103;51.340;12.326;2024-02-21T02:03:32;9.98;;;3.17;;
15996;SDS011;8103;51.340;12.326;2024-02-21T02:05:59;12.00;;;4.13;;
15996;SDS011;8103;51.340;12.326;2024-02-21T02:08:26;6.03;;;2.85;;
15996;SDS011;8103;51.340;12.326;2024-02-21T02:10:53;11.82;;;3.97;;
15996;SDS011;8103;51.340;12.326;2024-02-21T02:13:20;6.30;;;3.25;;
15996;SDS011;8103;51.340;12.326;2024-02-21T02:15:47;6.50;;;3.28;;
15996;SDS011;8103;51.340;12.326;2024-02-21T02:18:15;7.32;;;3.22;;
15996;SDS011;8103;51.340;12.326;2024-02-21T02:20:43;9.50;;;3.25;;
15996;SDS011;8103;51.340;12.326;2024-02-21T02:23:30;9.32;;;4.05;;
15996;SDS011;8103;51.340;12.326;2024-02-21T02:26:00;11.70;;;3.67;;
15996;SDS011;8103;51.340;12.326;2024-02-21T02:28:27;11.00;;;3.95;;
15996;SDS011;8103;51.340;12.326;2024-02-21T02:30:54;7.78;;;3.17;;
15996;SDS011;8103;51.340;12.326;2024-02-21T02:33:20;10.98;;;3.75;;
15996;SDS011;8103;51.340;12.326;2024-02-21T02:35:47;8.70;;;3.42;;
15996;SDS011;8103;51.340;12.326;2024-02-21T02:38:14;8.52;;;3.63;;
15996;SDS011;8103;51.340;12.326;2024-02-21T02:40:41;6.82;;;3.45;;
15996;SDS011;8103;51.340;12.326;2024-02-21T02:43:08;9.82;;;3.88;;
15996;SDS011;8103;51.340;12.326;2024-02-21T02:45:35;7.72;;;3.40;;
15996;SDS011;8103;51.340;12.326;2024-02-21T02:48:02;12.35;;;3.72;;
15996;SDS011;8103;51.340;12.326;2024-02-21T02:50:29;13.95;;;3.97;;
15996;SDS011;8103;51.340;12.326;2024-02-21T02:52:56;10.35;;;3.67;;
15996;SDS011;8103;51.340;12.326;2024-02-21T02:55:22;11.13;;;3.25;;
15996;SDS011;8103;51.340;12.326;2024-02-21T02:57:49;15.85;;;3.85;;
15996;SDS011;8103;51.340;12.326;2024-02-21T03:00:16;8.40;;;3.92;;
15996;SDS011;8103;51.340;12.326;2024-02-21T03:02:44;12.02;;;4.15;;
15996;SDS011;8103;51.340;12.326;2024-02-21T03:05:13;8.95;;;3.67;;
15996;SDS011;8103;51.340;12.326;2024-02-21T03:07:42;8.23;;;3.22;;
15996;SDS011;8103;51.340;12.326;2024-02-21T03:10:10;5.78;;;3.20;;
15996;SDS011;8103;51.340;12.326;2024-02-21T03:12:37;7.95;;;3.05;;
15996;SDS011;8103;51.340;12.326;2024-02-21T03:15:04;8.35;;;3.17;;
15996;SDS011;8103;51.340;12.326;2024-02-21T03:17:32;8.63;;;3.65;;
15996;SDS011;8103;51.340;12.326;2024-02-21T03:20:05;13.82;;;4.18;;
15996;SDS011;8103;51.340;12.326;2024-02-21T03:22:36;15.70;;;3.15;;
15996;SDS011;8103;51.340;12.326;2024-02-21T03:25:03;9.85;;;3.40;;
15996;SDS011;8103;51.340;12.326;2024-02-21T03:27:30;10.98;;;4.47;;
15996;SDS011;8103;51.340;12.326;2024-02-21T03:29:57;9.98;;;4.18;;
15996;SDS011;8103;51.340;12.326;2024-02-21T03:32:24;7.32;;;3.15;;
15996;SDS011;8103;51.340;12.326;2024-02-21T03:34:51;10.70;;;4.50;;
15996;SDS011;8103;51.340;12.326;2024-02-21T03:37:17;10.98;;;4.10;;
15996;SDS011;8103;51.340;12.326;2024-02-21T03:39:44;8.55;;;3.97;;
15996;SDS011;8103;51.340;12.326;2024-02-21T03:42:11;10.52;;;4.53;;
15996;SDS011;8103;51.340;12.326;2024-02-21T03:44:38;7.47;;;2.75;;
15996;SDS011;8103;51.340;12.326;2024-02-21T03:47:04;6.88;;;3.17;;
15996;SDS011;8103;51.340;12.326;2024-02-21T03:49:31;12.10;;;4.10;;
15996;SDS011;8103;51.340;12.326;2024-02-21T03:51:58;8.95;;;3.65;;
15996;SDS011;8103;51.340;12.326;2024-02-21T03:54:25;9.25;;;3.67;;
15996;SDS011;8103;51.340;12.326;2024-02-21T03:56:51;11.25;;;3.20;;
15996;SDS011;8103;51.340;12.326;2024-02-21T03:59:18;7.53;;;3.70;;
15996;SDS011;8103;51.340;12.326;2024-02-21T04:01:44;13.50;;;4.63;;
15996;SDS011;8103;51.340;12.326;2024-02-21T04:04:11;12.30;;;3.67;;
15996;SDS011;8103;51.340;12.326;2024-02-21T04:06:59;7.68;;;3.42;;
15996;SDS011;8103;51.340;12.326;2024-02-21T04:09:25;16.13;;;2.95;;
15996;SDS011;8103;51.340;12.326;2024-02-21T04:11:51;9.13;;;3.95;;
15996;SDS011;8103;51.340;12.326;2024-02-21T04:14:18;8.32;;;3.50;;
15996;SDS011;8103;51.340;12.326;2024-02-21T04:16:45;9.98;;;3.58;;
15996;SDS011;8103;51.340;12.326;2024-02-21T04:19:11;10.23;;;3.50;;
15996;SDS011;8103;51.340;12.326;2024-02-21T04:21:38;8.95;;;4.20;;
15996;SDS011;8103;51.340;12.326;2024-02-21T04:24:05;7.75;;;3.53;;
15996;SDS011;8103;51.340;12.326;2024-02-21T04:26:32;12.68;;;3.80;;
15996;SDS011;8103;51.340;12.326;2024-02-21T04:28:59;6.20;;;3.88;;
15996;SDS011;8103;51.340;12.326;2024-02-21T04:31:26;27.23;;;5.72;;
15996;SDS011;8103;51.340;12.326;2024-02-21T04:33:53;10.68;;;3.97;;
15996;SDS011;8103;51.340;12.326;2024-02-21T04:36:20;10.50;;;3.40;;
15996;SDS011;8103;51.340;12.326;2024-02-21T04:38:46;10.35;;;4.32;;
15996;SDS011;8103;51.340;12.326;2024-02-21T04:41:13;7.50;;;3.33;;
15996;SDS011;8103;51.340;12.326;2024-02-21T04:43:40;10.90;;;3.88;;
15996;SDS011;8103;51.340;12.326;2024-02-21T04:46:07;12.48;;;4.75;;
15996;SDS011;8103;51.340;12.326;2024-02-21T04:48:34;10.75;;;3.75;;
15996;SDS011;8103;51.340;12.326;2024-02-21T04:51:00;10.57;;;3.67;;
15996;SDS011;8103;51.340;12.326;2024-02-21T04:53:27;16.58;;;4.13;;
15996;SDS011;8103;51.340;12.326;2024-02-21T04:55:54;8.25;;;3.90;;
15996;SDS011;8103;51.340;12.326;2024-02-21T04:58:20;9.40;;;4.35;;
15996;SDS011;8103;51.340;12.326;2024-02-21T05:00:47;8.35;;;4.07;;
15996;SDS011;8103;51.340;12.326;2024-02-21T05:03:14;9.65;;;3.90;;
15996;SDS011;8103;51.340;12.326;2024-02-21T05:05:56;7.75;;;3.70;;
15996;SDS011;8103;51.340;12.326;2024-02-21T05:08:22;10.75;;;4.30;;
15996;SDS011;8103;51.340;12.326;2024-02-21T05:10:49;9.07;;;4.15;;
15996;SDS011;8103;51.340;12.326;2024-02-21T05:13:16;12.88;;;4.22;;
15996;SDS011;8103;51.340;12.326;2024-02-21T05:15:43;8.93;;;4.05;;
15996;SDS011;8103;51.340;12.326;2024-02-21T05:18:09;8.43;;;3.95;;
15996;SDS011;8103;51.340;12.326;2024-02-21T05:20:36;11.85;;;4.10;;
15996;SDS011;8103;51.340;12.326;2024-02-21T05:23:03;12.52;;;4.25;;
15996;SDS011;8103;51.340;12.326;2024-02-21T05:25:30;9.07;;;4.72;;
15996;SDS011;8103;51.340;12.326;2024-02-21T05:27:57;10.10;;;3.63;;
15996;SDS011;8103;51.340;12.326;2024-02-21T05:30:28;11.18;;;3.95;;
15996;SDS011;8103;51.340;12.326;2024-02-21T05:32:55;9.75;;;4.35;;
15996;SDS011;8103;51.340;12.326;2024-02-21T05:35:25;8.68;;;3.60;;
15996;SDS011;8103;51.340;12.326;2024-02-21T05:37:53;8.63;;;2.92;;
15996;SDS011;8103;51.340;12.326;2024-02-21T05:40:19;10.80;;;3.63;;
15996;SDS011;8103;51.340;12.326;2024-02-21T05:42:46;5.68;;;2.92;;
15996;SDS011;8103;51.340;12.326;2024-02-21T05:45:13;11.38;;;4.47;;
15996;SDS011;8103;51.340;12.326;2024-02-21T05:47:41;9.43;;;3.88;;
15996;SDS011;8103;51.340;12.326;2024-02-21T05:50:08;10.77;;;3.63;;
15996;SDS011;8103;51.340;12.326;2024-02-21T05:52:36;6.05;;;3.50;;
15996;SDS011;8103;51.340;12.326;2024-02-21T05:55:02;12.77;;;3.85;;
15996;SDS011;8103;51.340;12.326;2024-02-21T05:57:31;10.73;;;4.05;;
15996;SDS011;8103;51.340;12.326;2024-02-21T05:59:57;10.57;;;4.28;;
15996;SDS011;8103;51.340;12.326;2024-02-21T06:02:24;9.25;;;4.45;;
15996;SDS011;8103;51.340;12.326;2024-02-21T06:04:51;13.27;;;4.03;;
15996;SDS011;8103;51.340;12.326;2024-02-21T06:07:17;11.20;;;5.13;;
15996;SDS011;8103;51.340;12.326;2024-02-21T06:09:44;11.15;;;3.95;;
15996;SDS011;8103;51.340;12.326;2024-02-21T06:12:11;8.95;;;4.15;;
15996;SDS011;8103;51.340;12.326;2024-02-21T06:14:38;6.45;;;4.40;;
15996;SDS011;8103;51.340;12.326;2024-02-21T06:17:04;11.30;;;4.03;;
15996;SDS011;8103;51.340;12.326;2024-02-21T06:19:31;7.63;;;3.67;;
15996;SDS011;8103;51.340;12.326;2024-02-21T06:21:58;9.98;;;4.97;;
15996;SDS011;8103;51.340;12.326;2024-02-21T06:24:24;7.75;;;4.43;;
15996;SDS011;8103;51.340;12.326;2024-02-21T06:26:51;9.43;;;4.28;;
15996;SDS011;8103;51.340;12.326;2024-02-21T06:29:18;9.80;;;4.70;;
15996;SDS011;8103;51.340;12.326;2024-02-21T06:31:44;12.52;;;4.15;;
15996;SDS011;8103;51.340;12.326;2024-02-21T06:34:11;18.40;;;5.82;;
15996;SDS011;8103;51.340;12.326;2024-02-21T06:36:38;11.35;;;4.75;;
15996;SDS011;8103;51.340;12.326;2024-02-21T06:39:05;14.82;;;4.90;;
15996;SDS011;8103;51.340;12.326;2024-02-21T06:41:33;14.02;;;4.28;;
15996;SDS011;8103;51.340;12.326;2024-02-21T06:44:01;13.90;;;4.90;;
15996;SDS011;8103;51.340;12.326;2024-02-21T06:46:29;8.88;;;4.70;;
15996;SDS011;8103;51.340;12.326;2024-02-21T06:48:56;12.02;;;4.32;;
15996;SDS011;8103;51.340;12.326;2024-02-21T06:51:23;8.85;;;3.97;;
15996;SDS011;8103;51.340;12.326;2024-02-21T06:53:51;11.68;;;4.68;;
15996;SDS011;8103;51.340;12.326;2024-02-21T06:56:18;10.00;;;4.82;;
15996;SDS011;8103;51.340;12.326;2024-02-21T06:58:45;11.77;;;4.80;;
15996;SDS011;8103;51.340;12.326;2024-02-21T07:01:12;9.65;;;4.03;;
15996;SDS011;8103;51.340;12.326;2024-02-21T07:03:38;13.27;;;5.22;;
15996;SDS011;8103;51.340;12.326;2024-02-21T07:06:05;8.27;;;4.22;;
15996;SDS011;8103;51.340;12.326;2024-02-21T07:08:32;7.57;;;4.00;;
15996;SDS011;8103;51.340;12.326;2024-02-21T07:10:59;9.63;;;3.95;;
15996;SDS011;8103;51.340;12.326;2024-02-21T07:13:25;7.97;;;3.47;;
15996;SDS011;8103;51.340;12.326;2024-02-21T07:15:52;10.45;;;4.38;;
15996;SDS011;8103;51.340;12.326;2024-02-21T07:18:20;8.30;;;4.97;;
15996;SDS011;8103;51.340;12.326;2024-02-21T07:20:47;9.10;;;4.82;;
15996;SDS011;8103;51.340;12.326;2024-02-21T07:23:13;10.48;;;4.50;;
15996;SDS011;8103;51.340;12.326;2024-02-21T07:25:40;11.85;;;4.28;;
15996;SDS011;8103;51.340;12.326;2024-02-21T07:28:07;12.30;;;5.30;;
15996;SDS011;8103;51.340;12.326;2024-02-21T07:30:34;10.23;;;5.57;;
15996;SDS011;8103;51.340;12.326;2024-02-21T07:33:00;7.75;;;4.88;;
15996;SDS011;8103;51.340;12.326;2024-02-21T07:35:27;8.77;;;5.43;;
15996;SDS011;8103;51.340;12.326;2024-02-21T07:37:54;10.95;;;5.03;;
15996;SDS011;8103;51.340;12.326;2024-02-21T07:40:21;14.07;;;5.10;;
15996;SDS011;8103;51.340;12.326;2024-02-21T07:42:48;9.43;;;5.57;;
15996;SDS011;8103;51.340;12.326;2024-02-21T07:45:16;9.00;;;4.82;;
15996;SDS011;8103;51.340;12.326;2024-02-21T07:47:44;7.75;;;5.25;;
15996;SDS011;8103;51.340;12.326;2024-02-21T07:50:11;12.32;;;5.10;;
15996;SDS011;8103;51.340;12.326;2024-02-21T07:52:38;8.77;;;5.25;;
15996;SDS011;8103;51.340;12.326;2024-02-21T07:55:05;8.70;;;5.22;;
15996;SDS011;8103;51.340;12.326;2024-02-21T07:57:31;9.85;;;5.80;;
15996;SDS011;8103;51.340;12.326;2024-02-21T07:59:58;16.02;;;5.03;;
15996;SDS011;8103;51.340;12.326;2024-02-21T08:02:25;12.35;;;5.57;;
15996;SDS011;8103;51.340;12.326;2024-02-21T08:04:51;8.20;;;4.45;;
15996;SDS011;8103;51.340;12.326;2024-02-21T08:07:18;6.28;;;4.15;;
15996;SDS011;8103;51.340;12.326;2024-02-21T08:09:45;11.05;;;4.90;;
15996;SDS011;8103;51.340;12.326;2024-02-21T08:12:12;9.20;;;4.60;;
15996;SDS011;8103;51.340;12.326;2024-02-21T08:14:38;11.45;;;4.25;;
15996;SDS011;8103;51.340;12.326;2024-02-21T08:17:05;8.30;;;4.93;;
15996;SDS011;8103;51.340;12.326;2024-02-21T08:19:32;8.10;;;5.22;;
15996;SDS011;8103;51.340;12.326;2024-02-21T08:21:59;9.52;;;5.53;;
15996;SDS011;8103;51.340;12.326;2024-02-21T08:24:26;11.73;;;4.68;;
15996;SDS011;8103;51.340;12.326;2024-02-21T08:26:53;11.25;;;4.53;;
15996;SDS011;8103;51.340;12.326;2024-02-21T08:29:20;9.00;;;5.00;;
15996;SDS011;8103;51.340;12.326;2024-02-21T08:31:46;12.50;;;4.88;;
15996;SDS011;8103;51.340;12.326;2024-02-21T08:34:13;7.53;;;4.07;;
15996;SDS011;8103;51.340;12.326;2024-02-21T08:36:40;11.82;;;4.82;;
15996;SDS011;8103;51.340;12.326;2024-02-21T08:39:07;11.02;;;4.10;;
15996;SDS011;8103;51.340;12.326;2024-02-21T08:41:36;8.98;;;4.00;;
15996;SDS011;8103;51.340;12.326;2024-02-21T08:44:11;13.65;;;5.97;;
15996;SDS011;8103;51.340;12.326;2024-02-21T08:46:38;13.80;;;5.63;;
15996;SDS011;8103;51.340;12.326;2024-02-21T08:49:06;7.85;;;4.70;;
15996;SDS011;8103;51.340;12.326;2024-02-21T08:51:33;10.50;;;6.60;;
15996;SDS011;8103;51.340;12.326;2024-02-21T08:54:01;11.32;;;5.28;;
15996;SDS011;8103;51.340;12.326;2024-02-21T08:56:30;9.43;;;4.95;;
15996;SDS011;8103;51.340;12.326;2024-02-21T08:58:57;16.02;;;4.90;;
15996;SDS011;8103;51.340;12.326;2024-02-21T09:01:24;13.93;;;5.32;;
15996;SDS011;8103;51.340;12.326;2024-02-21T09:03:51;14.90;;;5.68;;
15996;SDS011;8103;51.340;12.326;2024-02-21T09:06:20;10.80;;;4.95;;
15996;SDS011;8103;51.340;12.326;2024-02-21T09:08:46;13.93;;;5.40;;
15996;SDS011;8103;51.340;12.326;2024-02-21T09:11:13;11.75;;;5.82;;
15996;SDS011;8103;51.340;12.326;2024-02-21T09:13:40;9.23;;;5.20;;
15996;SDS011;8103;51.340;12.326;2024-02-21T09:16:10;13.95;;;6.05;;
15996;SDS011;8103;51.340;12.326;2024-02-21T09:18:36;13.50;;;4.75;;
15996;SDS011;8103;51.340;12.326;2024-02-21T09:21:03;13.52;;;5.25;;
15996;SDS011;8103;51.340;12.326;2024-02-21T09:23:30;9.32;;;4.40;;
15996;SDS011;8103;51.340;12.326;2024-02-21T09:25:58;12.68;;;4.93;;
15996;SDS011;8103;51.340;12.326;2024-02-21T09:28:27;8.25;;;4.85;;
15996;SDS011;8103;51.340;12.326;2024-02-21T09:30:54;10.40;;;5.22;;
15996;SDS011;8103;51.340;12.326;2024-02-21T09:33:20;9.32;;;4.95;;
15996;SDS011;8103;51.340;12.326;2024-02-21T09:35:52;12.32;;;5.00;;
15996;SDS011;8103;51.340;12.326;2024-02-21T09:38:19;10.75;;;5.45;;
15996;SDS011;8103;51.340;12.326;2024-02-21T09:40:46;10.20;;;5.10;;
15996;SDS011;8103;51.340;12.326;2024-02-21T09:43:13;10.65;;;5.47;;
15996;SDS011;8103;51.340;12.326;2024-02-21T09:45:45;7.25;;;4.10;;
15996;SDS011;8103;51.340;12.326;2024-02-21T09:50:55;16.00;;;5.00;;
15996;SDS011;8103;51.340;12.326;2024-02-21T09:53:24;8.60;;;4.82;;
15996;SDS011;8103;51.340;12.326;2024-02-21T09:55:51;14.35;;;5.90;;
15996;SDS011;8103;51.340;12.326;2024-02-21T09:58:18;11.30;;;6.10;;
15996;SDS011;8103;51.340;12.326;2024-02-21T10:00:45;7.25;;;4.20;;
15996;SDS011;8103;51.340;12.326;2024-02-21T10:03:12;9.98;;;4.20;;
15996;SDS011;8103;51.340;12.326;2024-02-21T10:05:45;10.70;;;4.72;;
15996;SDS011;8103;51.340;12.326;2024-02-21T10:08:19;13.05;;;5.55;;
15996;SDS011;8103;51.340;12.326;2024-02-21T10:10:46;9.88;;;5.03;;
15996;SDS011;8103;51.340;12.326;2024-02-21T10:13:25;11.55;;;4.78;;
15996;SDS011;8103;51.340;12.326;2024-02-21T10:16:06;7.15;;;4.72;;
15996;SDS011;8103;51.340;12.326;2024-02-21T10:18:34;12.75;;;4.28;;
15996;SDS011;8103;51.340;12.326;2024-02-21T10:21:01;9.45;;;4.70;;
15996;SDS011;8103;51.340;12.326;2024-02-21T10:23:45;8.25;;;4.60;;
15996;SDS011;8103;51.340;12.326;2024-02-21T10:26:13;11.95;;;4.43;;
15996;SDS011;8103;51.340;12.326;2024-02-21T10:28:41;11.20;;;5.53;;
15996;SDS011;8103;51.340;12.326;2024-02-21T10:31:21;7.50;;;4.25;;
15996;SDS011;8103;51.340;12.326;2024-02-21T10:33:59;13.77;;;5.05;;
15996;SDS011;8103;51.340;12.326;2024-02-21T10:36:29;8.80;;;4.47;;
15996;SDS011;8103;51.340;12.326;2024-02-21T10:38:56;8.57;;;4.38;;
15996;SDS011;8103;51.340;12.326;2024-02-21T10:41:23;7.35;;;4.13;;
15996;SDS011;8103;51.340;12.326;2024-02-21T10:43:51;8.63;;;3.70;;
15996;SDS011;8103;51.340;12.326;2024-02-21T10:46:22;8.60;;;4.25;;
15996;SDS011;8103;51.340;12.326;2024-02-21T10:49:07;9.00;;;4.13;;
15996;SDS011;8103;51.340;12.326;2024-02-21T10:51:41;9.27;;;4.47;;
15996;SDS011;8103;51.340;12.326;2024-02-21T10:54:16;11.30;;;4.15;;
15996;SDS011;8103;51.340;12.326;2024-02-21T10:56:53;8.52;;;4.03;;
15996;SDS011;8103;51.340;12.326;2024-02-21T10:59:23;8.00;;;3.58;;
15996;SDS011;8103;51.340;12.326;2024-02-21T11:01:52;12.07;;;3.92;;
15996;SDS011;8103;51.340;12.326;2024-02-21T11:04:22;8.90;;;4.53;;
15996;SDS011;8103;51.340;12.326;2024-02-21T11:06:50;8.23;;;4.28;;
15996;SDS011;8103;51.340;12.326;2024-02-21T11:09:18;7.60;;;4.40;;
15996;SDS011;8103;51.340;12.326;2024-02-21T11:12:02;6.72;;;2.88;;
15996;SDS011;8103;51.340;12.326;2024-02-21T11:14:31;7.80;;;3.20;;
15996;SDS011;8103;51.340;12.326;2024-02-21T11:17:15;5.53;;;2.92;;
15996;SDS011;8103;51.340;12.326;2024-02-21T11:19:47;5.75;;;2.88;;
15996;SDS011;8103;51.340;12.326;2024-02-21T11:22:18;6.43;;;3.25;;
15996;SDS011;8103;51.340;12.326;2024-02-21T11:24:46;5.82;;;3.17;;
15996;SDS011;8103;51.340;12.326;2024-02-21T11:27:13;5.80;;;3.10;;
15996;SDS011;8103;51.340;12.326;2024-02-21T11:29:44;4.68;;;2.78;;
15996;SDS011;8103;51.340;12.326;2024-02-21T11:32:16;6.28;;;2.88;;
15996;SDS011;8103;51.340;12.326;2024-02-21T11:34:55;9.32;;;3.30;;
15996;SDS011;8103;51.340;12.326;2024-02-21T11:37:32;8.38;;;2.80;;
15996;SDS011;8103;51.340;12.326;2024-02-21T11:40:01;6.10;;;3.00;;
15996;SDS011;8103;51.340;12.326;2024-02-21T11:42:29;5.97;;;2.83;;
15996;SDS011;8103;51.340;12.326;2024-02-21T11:44:56;6.13;;;2.83;;
15996;SDS011;8103;51.340;12.326;2024-02-21T11:47:23;6.43;;;3.08;;
15996;SDS011;8103;51.340;12.326;2024-02-21T11:49:51;4.30;;;3.55;;
15996;SDS011;8103;51.340;12.326;2024-02-21T11:52:22;6.65;;;3.08;;
15996;SDS011;8103;51.340;12.326;2024-02-21T11:54:51;6.15;;;3.38;;
15996;SDS011;8103;51.340;12.326;2024-02-21T11:57:24;5.35;;;2.60;;
15996;SDS011;8103;51.340;12.326;2024-02-21T11:59:51;8.38;;;3.22;;
15996;SDS011;8103;51.340;12.326;2024-02-21T12:02:23;6.55;;;3.13;;
15996;SDS011;8103;51.340;12.326;2024-02-21T12:04:50;5.53;;;2.65;;
15996;SDS011;8103;51.340;12.326;2024-02-21T12:07:17;3.65;;;2.08;;
15996;SDS011;8103;51.340;12.326;2024-02-21T12:09:44;3.65;;;2.45;;
15996;SDS011;8103;51.340;12.326;2024-02-21T12:12:11;4.60;;;2.38;;
15996;SDS011;8103;51.340;12.326;2024-02-21T12:14:38;4.22;;;1.67;;
15996;SDS011;8103;51.340;12.326;2024-02-21T12:17:04;3.70;;;1.83;;
15996;SDS011;8103;51.340;12.326;2024-02-21T12:19:32;3.83;;;2.30;;
15996;SDS011;8103;51.340;12.326;2024-02-21T12:22:00;3.28;;;1.70;;
15996;SDS011;8103;51.340;12.326;2024-02-21T12:24:28;3.00;;;2.05;;
15996;SDS011;8103;51.340;12.326;2024-02-21T12:26:55;4.03;;;2.25;;
15996;SDS011;8103;51.340;12.326;2024-02-21T12:29:23;6.20;;;2.85;;
15996;SDS011;8103;51.340;12.326;2024-02-21T12:31:53;8.43;;;2.45;;
15996;SDS011;8103;51.340;12.326;2024-02-21T12:34:21;6.70;;;2.25;;
15996;SDS011;8103;51.340;12.326;2024-02-21T12:36:55;4.65;;;2.10;;
15996;SDS011;8103;51.340;12.326;2024-02-21T12:39:22;5.43;;;3.00;;
15996;SDS011;8103;51.340;12.326;2024-02-21T12:41:49;5.82;;;3.00;;
15996;SDS011;8103;51.340;12.326;2024-02-21T12:44:16;4.15;;;2.22;;
15996;SDS011;8103;51.340;12.326;2024-02-21T12:46:44;6.05;;;2.75;;
15996;SDS011;8103;51.340;12.326;2024-02-21T12:49:11;9.30;;;2.75;;
15996;SDS011;8103;51.340;12.326;2024-02-21T12:51:38;4.85;;;2.15;;
15996;SDS011;8103;51.340;12.326;2024-02-21T12:54:05;4.65;;;2.50;;
15996;SDS011;8103;51.340;12.326;2024-02-21T12:56:32;4.68;;;2.35;;
15996;SDS011;8103;51.340;12.326;2024-02-21T12:58:59;5.13;;;2.55;;
15996;SDS011;8103;51.340;12.326;2024-02-21T13:01:26;5.88;;;2.88;;
15996;SDS011;8103;51.340;12.326;2024-02-21T13:03:54;3.05;;;2.13;;
15996;SDS011;8103;51.340;12.326;2024-02-21T13:06:22;4.15;;;2.40;;
15996;SDS011;8103;51.340;12.326;2024-02-21T13:08:48;3.40;;;1.77;;
15996;SDS011;8103;51.340;12.326;2024-02-21T13:11:17;6.03;;;2.50;;
15996;SDS011;8103;51.340;12.326;2024-02-21T13:13:44;5.07;;;2.35;;
15996;SDS011;8103;51.340;12.326;2024-02-21T13:16:10;3.08;;;1.83;;
15996;SDS011;8103;51.340;12.326;2024-02-21T13:18:37;6.20;;;2.78;;
15996;SDS011;8103;51.340;12.326;2024-02-21T13:21:05;4.10;;;2.40;;
15996;SDS011;8103;51.340;12.326;2024-02-21T13:23:33;6.78;;;2.80;;
15996;SDS011;8103;51.340;12.326;2024-02-21T13:25:59;7.30;;;2.30;;
15996;SDS011;8103;51.340;12.326;2024-02-21T13:28:26;3.35;;;2.03;;
15996;SDS011;8103;51.340;12.326;2024-02-21T13:30:53;4.10;;;2.42;;
15996;SDS011;8103;51.340;12.326;2024-02-21T13:33:20;4.68;;;1.83;;
15996;SDS011;8103;51.340;12.326;2024-02-21T13:35:47;5.97;;;1.95;;
15996;SDS011;8103;51.340;12.326;2024-02-21T13:38:14;5.25;;;2.13;;
15996;SDS011;8103;51.340;12.326;2024-02-21T13:40:40;5.18;;;1.70;;
15996;SDS011;8103;51.340;12.326;2024-02-21T13:43:08;4.90;;;2.13;;
15996;SDS011;8103;51.340;12.326;2024-02-21T13:45:36;4.65;;;2.22;;
15996;SDS011;8103;51.340;12.326;2024-02-21T13:48:03;5.18;;;1.80;;
15996;SDS011;8103;51.340;12.326;2024-02-21T13:50:32;3.45;;;1.80;;
15996;SDS011;8103;51.340;12.326;2024-02-21T13:53:06;3.78;;;2.70;;
15996;SDS011;8103;51.340;12.326;2024-02-21T13:55:32;3.00;;;1.83;;
15996;SDS011;8103;51.340;12.326;2024-02-21T13:57:59;3.90;;;2.00;;
15996;SDS011;8103;51.340;12.326;2024-02-21T14:00:26;4.80;;;2.17;;
15996;SDS011;8103;51.340;12.326;2024-02-21T14:02:53;5.18;;;2.38;;
15996;SDS011;8103;51.340;12.326;2024-02-21T14:05:20;3.97;;;2.47;;
15996;SDS011;8103;51.340;12.326;2024-02-21T14:07:47;5.65;;;2.25;;
15996;SDS011;8103;51.340;12.326;2024-02-21T14:10:14;2.10;;;1.58;;
15996;SDS011;8103;51.340;12.326;2024-02-21T14:12:40;3.80;;;3.38;;
15996;SDS011;8103;51.340;12.326;2024-02-21T14:15:07;5.95;;;2.38;;
15996;SDS011;8103;51.340;12.326;2024-02-21T14:17:35;4.95;;;2.20;;
15996;SDS011;8103;51.340;12.326;2024-02-21T14:20:02;6.13;;;2.97;;
15996;SDS011;8103;51.340;12.326;2024-02-21T14:22:31;6.97;;;1.80;;
15996;SDS011;8103;51.340;12.326;2024-02-21T14:24:57;4.07;;;2.42;;
15996;SDS011;8103;51.340;12.326;2024-02-21T14:27:24;5.78;;;1.90;;
15996;SDS011;8103;51.340;12.326;2024-02-21T14:29:51;7.38;;;2.35;;
15996;SDS011;8103;51.340;12.326;2024-02-21T14:32:19;4.38;;;2.22;;
15996;SDS011;8103;51.340;12.326;2024-02-21T14:34:46;5.45;;;2.22;;
15996;SDS011;8103;51.340;12.326;2024-02-21T14:37:13;6.45;;;2.47;;
15996;SDS011;8103;51.340;12.326;2024-02-21T14:39:40;6.15;;;3.03;;
15996;SDS011;8103;51.340;12.326;2024-02-21T14:42:07;4.43;;;2.20;;
15996;SDS011;8103;51.340;12.326;2024-02-21T14:44:36;6.50;;;2.22;;
15996;SDS011;8103;51.340;12.326;2024-02-21T14:47:03;3.22;;;2.03;;
15996;SDS011;8103;51.340;12.326;2024-02-21T14:49:30;5.63;;;1.73;;